createdAt,value
2019-05-01T00:01:44.124Z,9.57
2019-05-01T00:04:42.310Z,9.58
2019-05-01T00:07:22.286Z,9.58
2019-05-01T00:09:56.721Z,9.56
2019-05-01T00:12:31.177Z,9.54
2019-05-01T00:15:06.136Z,9.48
2019-05-01T00:17:40.691Z,9.53
2019-05-01T00:20:15.336Z,9.66
2019-05-01T00:22:49.704Z,9.60
2019-05-01T00:25:24.116Z,9.58
2019-05-01T00:27:58.671Z,9.63
2019-05-01T00:30:33.272Z,9.68
2019-05-01T00:33:08.264Z,9.65
2019-05-01T00:35:43.765Z,9.71
2019-05-01T00:38:17.279Z,9.74
2019-05-01T00:40:51.297Z,9.58
2019-05-01T00:43:25.756Z,9.58
2019-05-01T00:45:58.675Z,9.50
2019-05-01T00:48:32.883Z,9.44
2019-05-01T00:51:06.962Z,9.55
2019-05-01T00:53:39.797Z,9.55
2019-05-01T00:56:37.288Z,9.58
2019-05-01T00:59:31.088Z,9.66
2019-05-01T01:02:29.947Z,9.65
2019-05-01T01:05:02.867Z,9.65
2019-05-01T01:07:37.284Z,9.69
2019-05-01T01:10:11.785Z,9.75
2019-05-01T01:12:46.325Z,9.86
2019-05-01T01:15:20.711Z,9.90
2019-05-01T01:17:54.946Z,9.88
2019-05-01T01:20:29.280Z,9.88
2019-05-01T01:23:03.776Z,9.81
2019-05-01T01:25:38.281Z,9.73
2019-05-01T01:28:12.777Z,9.75
2019-05-01T01:30:55.595Z,9.71
2019-05-01T01:33:21.813Z,9.63
2019-05-01T01:35:56.074Z,9.56
2019-05-01T01:38:30.596Z,9.56
2019-05-01T01:41:05.284Z,9.56
2019-05-01T01:43:53.366Z,9.51
2019-05-01T01:46:29.660Z,9.54
2019-05-01T01:49:03.951Z,9.56
2019-05-01T01:51:38.603Z,9.51
2019-05-01T01:54:14.246Z,9.43
2019-05-01T01:56:48.695Z,9.41
2019-05-01T01:59:23.677Z,9.26
2019-05-01T02:02:18.273Z,9.26
2019-05-01T02:05:13.439Z,9.39
2019-05-01T02:07:48.162Z,9.63
2019-05-01T02:10:22.794Z,9.63
2019-05-01T02:12:56.275Z,9.66
2019-05-01T02:15:30.319Z,9.66
2019-05-01T02:18:04.685Z,9.64
2019-05-01T02:20:38.953Z,9.64
2019-05-01T02:23:13.077Z,9.63
2019-05-01T02:25:47.599Z,9.71
2019-05-01T02:28:47.633Z,9.75
2019-05-01T02:31:36.899Z,9.75
2019-05-01T02:34:10.580Z,9.72
2019-05-01T02:36:46.788Z,9.74
2019-05-01T02:39:20.550Z,9.81
2019-05-01T02:41:57.335Z,9.84
2019-05-01T02:44:41.072Z,9.76
2019-05-01T02:47:24.258Z,9.79
2019-05-01T02:50:10.868Z,9.79
2019-05-01T02:52:45.569Z,9.85
2019-05-01T02:55:35.347Z,9.83
2019-05-01T02:58:59.304Z,9.88
2019-05-01T03:01:46.501Z,9.83
2019-05-01T03:04:11.352Z,9.88
2019-05-01T03:06:46.511Z,9.94
2019-05-01T03:09:22.332Z,9.95
2019-05-01T03:12:00.135Z,10.04
2019-05-01T03:14:38.644Z,10.14
2019-05-01T03:17:32.665Z,10.14
2019-05-01T03:20:32.284Z,10.17
2019-05-01T03:23:24.451Z,10.28
2019-05-01T03:25:59.309Z,10.33
2019-05-01T03:28:34.560Z,10.38
2019-05-01T03:31:08.910Z,10.38
2019-05-01T03:33:43.342Z,10.52
2019-05-01T03:36:18.674Z,10.62
2019-05-01T03:38:53.630Z,10.67
2019-05-01T03:41:27.929Z,10.75
2019-05-01T03:44:01.698Z,10.79
2019-05-01T03:46:36.276Z,10.80
2019-05-01T03:49:10.714Z,10.83
2019-05-01T03:51:45.278Z,10.84
2019-05-01T03:54:19.862Z,10.90
2019-05-01T03:56:52.752Z,10.95
2019-05-01T03:59:27.313Z,10.87
2019-05-01T04:02:10.277Z,10.85
2019-05-01T04:04:44.737Z,10.84
2019-05-01T04:07:19.081Z,10.86
2019-05-01T04:09:53.657Z,10.84
2019-05-01T04:12:56.120Z,10.84
2019-05-01T04:15:35.663Z,10.74
2019-05-01T04:18:16.694Z,10.72
2019-05-01T04:20:50.272Z,10.78
2019-05-01T04:23:24.626Z,10.88
2019-05-01T04:25:59.103Z,10.88
2019-05-01T04:28:52.762Z,10.93
2019-05-01T04:31:45.662Z,10.93
2019-05-01T04:34:37.945Z,10.89
2019-05-01T04:37:13.582Z,10.86
2019-05-01T04:39:48.341Z,10.86
2019-05-01T04:42:22.720Z,10.87
2019-05-01T04:44:57.122Z,11.04
2019-05-01T04:47:31.595Z,11.24
2019-05-01T04:50:06.270Z,11.24
2019-05-01T04:52:41.272Z,11.32
2019-05-01T04:55:15.866Z,11.34
2019-05-01T04:57:48.789Z,11.44
2019-05-01T05:00:22.884Z,11.52
2019-05-01T05:03:04.833Z,11.53
2019-05-01T05:05:38.615Z,11.53
2019-05-01T05:08:13.209Z,11.65
2019-05-01T05:10:48.936Z,11.49
2019-05-01T05:13:32.273Z,11.40
2019-05-01T05:16:15.694Z,11.44
2019-05-01T05:18:50.281Z,11.44
2019-05-01T05:21:24.648Z,11.53
2019-05-01T05:23:59.075Z,11.71
2019-05-01T05:26:33.891Z,12.08
2019-05-01T05:29:08.472Z,12.08
2019-05-01T05:31:44.368Z,11.98
2019-05-01T05:34:21.915Z,11.93
2019-05-01T05:36:59.564Z,12.10
2019-05-01T05:39:41.539Z,12.07
2019-05-01T05:42:17.237Z,11.96
2019-05-01T05:44:52.120Z,11.87
2019-05-01T05:47:27.300Z,11.95
2019-05-01T05:50:01.920Z,11.95
2019-05-01T05:52:45.323Z,12.00
2019-05-01T05:55:37.700Z,12.12
2019-05-01T05:58:24.585Z,12.38
2019-05-01T06:01:19.894Z,12.38
2019-05-01T06:04:14.093Z,12.35
2019-05-01T06:07:03.268Z,12.33
2019-05-01T06:09:58.787Z,12.33
2019-05-01T06:12:51.686Z,12.44
2019-05-01T06:15:49.157Z,12.37
2019-05-01T06:18:34.783Z,12.46
2019-05-01T06:21:15.274Z,12.51
2019-05-01T06:24:14.945Z,12.35
2019-05-01T06:26:49.273Z,12.38
2019-05-01T06:29:23.681Z,12.35
2019-05-01T06:31:58.807Z,12.19
2019-05-01T06:34:34.276Z,12.12
2019-05-01T06:37:08.922Z,12.23
2019-05-01T06:39:47.891Z,12.45
2019-05-01T06:42:20.764Z,12.97
2019-05-01T06:45:01.271Z,12.97
2019-05-01T06:47:52.475Z,12.90
2019-05-01T06:50:37.040Z,12.80
2019-05-01T06:53:09.643Z,12.65
2019-05-01T06:55:44.070Z,12.65
2019-05-01T06:58:20.396Z,12.88
2019-05-01T07:00:55.280Z,12.88
2019-05-01T07:03:29.728Z,13.09
2019-05-01T07:06:14.056Z,13.20
2019-05-01T07:08:40.329Z,13.11
2019-05-01T07:11:15.527Z,13.11
2019-05-01T07:13:55.759Z,13.07
2019-05-01T07:16:33.072Z,12.99
2019-05-01T07:19:08.270Z,12.99
2019-05-01T07:21:42.769Z,12.84
2019-05-01T07:24:16.285Z,12.99
2019-05-01T07:26:50.730Z,13.13
2019-05-01T07:29:26.706Z,13.30
2019-05-01T07:32:01.710Z,13.53
2019-05-01T07:34:49.729Z,13.56
2019-05-01T07:37:25.846Z,13.55
2019-05-01T07:40:00.494Z,13.77
2019-05-01T07:42:38.277Z,14.03
2019-05-01T07:45:32.308Z,14.19
2019-05-01T07:48:07.301Z,14.14
2019-05-01T07:50:42.270Z,14.02
2019-05-01T07:53:16.741Z,14.12
2019-05-01T07:55:52.700Z,14.45
2019-05-01T07:58:26.103Z,14.72
2019-05-01T08:01:28.284Z,14.72
2019-05-01T08:04:02.851Z,14.72
2019-05-01T08:06:37.267Z,14.37
2019-05-01T08:09:15.222Z,14.40
2019-05-01T08:11:47.943Z,14.40
2019-05-01T08:14:20.859Z,14.36
2019-05-01T08:16:53.670Z,14.24
2019-05-01T08:19:44.728Z,14.30
2019-05-01T08:22:22.909Z,14.50
2019-05-01T08:24:58.692Z,14.93
2019-05-01T08:27:45.577Z,15.40
2019-05-01T08:30:31.944Z,16.40
2019-05-01T08:33:23.623Z,16.40
2019-05-01T08:35:57.943Z,16.29
2019-05-01T08:38:34.282Z,16.51
2019-05-01T08:41:08.277Z,16.57
2019-05-01T08:43:42.942Z,16.76
2019-05-01T08:46:38.667Z,17.34
2019-05-01T08:49:34.715Z,17.34
2019-05-01T08:52:12.870Z,17.74
2019-05-01T08:54:45.340Z,19.34
2019-05-01T08:57:19.885Z,19.34
2019-05-01T08:59:55.650Z,19.36
2019-05-01T09:02:30.424Z,19.27
2019-05-01T09:05:07.281Z,19.38
2019-05-01T09:07:41.415Z,19.29
2019-05-01T09:10:17.112Z,19.29
2019-05-01T09:12:52.279Z,19.09
2019-05-01T09:15:27.781Z,19.11
2019-05-01T09:18:00.675Z,19.39
2019-05-01T09:20:36.318Z,19.77
2019-05-01T09:23:14.510Z,20.57
2019-05-01T09:25:55.337Z,20.57
2019-05-01T09:28:35.925Z,20.46
2019-05-01T09:31:12.423Z,19.73
2019-05-01T09:33:47.086Z,19.47
2019-05-01T09:36:21.382Z,18.91
2019-05-01T09:38:55.904Z,18.91
2019-05-01T09:41:38.082Z,19.31
2019-05-01T09:44:10.616Z,20.30
2019-05-01T09:46:44.798Z,20.86
2019-05-01T09:49:20.372Z,20.98
2019-05-01T09:52:13.758Z,21.46
2019-05-01T09:55:02.547Z,21.46
2019-05-01T09:57:41.503Z,21.60
2019-05-01T10:00:21.520Z,21.77
2019-05-01T10:02:56.754Z,21.77
2019-05-01T10:05:32.426Z,21.63
2019-05-01T10:08:07.298Z,21.06
2019-05-01T10:10:42.118Z,20.46
2019-05-01T10:13:17.628Z,20.29
2019-05-01T10:15:53.307Z,19.76
2019-05-01T10:18:27.961Z,19.69
2019-05-01T10:21:02.668Z,19.18
2019-05-01T10:23:36.930Z,19.18
2019-05-01T10:26:13.811Z,19.41
2019-05-01T10:29:21.394Z,19.96
2019-05-01T10:31:59.679Z,20.43
2019-05-01T10:34:58.995Z,21.40
2019-05-01T10:37:35.447Z,21.41
2019-05-01T10:40:10.938Z,21.13
2019-05-01T10:42:45.268Z,22.14
2019-05-01T10:45:20.905Z,21.32
2019-05-01T10:47:55.247Z,20.65
2019-05-01T10:50:30.276Z,19.76
2019-05-01T10:53:05.076Z,19.76
2019-05-01T10:55:39.718Z,19.32
2019-05-01T10:58:18.502Z,18.93
2019-05-01T11:00:53.619Z,18.62
2019-05-01T11:03:29.279Z,18.45
2019-05-01T11:06:03.867Z,18.33
2019-05-01T11:08:38.278Z,18.16
2019-05-01T11:11:12.696Z,17.92
2019-05-01T11:13:47.275Z,17.73
2019-05-01T11:16:21.756Z,17.63
2019-05-01T11:18:54.634Z,17.94
2019-05-01T11:21:28.940Z,19.23
2019-05-01T11:24:03.412Z,21.47
2019-05-01T11:29:21.107Z,21.96
2019-05-01T11:32:05.334Z,21.05
2019-05-01T11:35:11.125Z,21.05
2019-05-01T11:38:14.275Z,19.99
2019-05-01T11:40:54.303Z,22.41
2019-05-01T11:43:28.929Z,24.60
2019-05-01T11:46:03.994Z,25.66
2019-05-01T11:48:39.279Z,26.47
2019-05-01T11:51:14.120Z,26.84
2019-05-01T11:53:48.778Z,26.84
2019-05-01T11:56:23.340Z,27.96
2019-05-01T11:58:57.792Z,28.92
2019-05-01T12:01:31.142Z,29.01
2019-05-01T12:04:06.420Z,28.84
2019-05-01T12:06:41.714Z,28.86
2019-05-01T12:09:15.683Z,29.73
2019-05-01T12:11:51.393Z,29.65
2019-05-01T12:14:26.787Z,30.10
2019-05-01T12:17:16.659Z,29.61
2019-05-01T12:19:51.233Z,29.61
2019-05-01T12:22:25.658Z,28.14
2019-05-01T12:25:00.112Z,28.67
2019-05-01T12:27:35.126Z,29.89
2019-05-01T12:30:10.941Z,30.94
2019-05-01T12:32:45.286Z,30.94
2019-05-01T12:35:19.944Z,30.70
2019-05-01T12:37:56.328Z,27.85
2019-05-01T12:40:31.134Z,27.85
2019-05-01T12:43:05.732Z,24.62
2019-05-01T12:45:38.862Z,24.62
2019-05-01T12:48:13.280Z,24.01
2019-05-01T12:50:50.282Z,23.55
2019-05-01T12:53:31.790Z,22.41
2019-05-01T12:56:16.201Z,22.41
2019-05-01T12:58:51.292Z,22.41
2019-05-01T13:01:25.785Z,22.59
2019-05-01T13:03:59.663Z,25.53
2019-05-01T13:06:33.938Z,25.53
2019-05-01T13:09:09.886Z,25.14
2019-05-01T13:11:44.273Z,24.58
2019-05-01T13:14:18.764Z,24.18
2019-05-01T13:16:51.657Z,23.77
2019-05-01T13:19:25.878Z,23.32
2019-05-01T13:22:00.286Z,23.59
2019-05-01T13:24:36.342Z,24.10
2019-05-01T13:27:19.654Z,24.10
2019-05-01T13:30:18.742Z,25.63
2019-05-01T13:32:53.281Z,26.99
2019-05-01T13:35:30.456Z,27.59
2019-05-01T13:38:03.935Z,27.22
2019-05-01T13:40:38.272Z,26.50
2019-05-01T13:43:13.109Z,26.50
2019-05-01T13:45:47.626Z,28.23
2019-05-01T13:48:22.269Z,28.23
2019-05-01T13:50:56.770Z,26.81
2019-05-01T13:53:29.869Z,25.69
2019-05-01T13:56:03.296Z,25.37
2019-05-01T13:58:37.941Z,25.15
2019-05-01T14:01:13.124Z,25.06
2019-05-01T14:03:47.715Z,25.52
2019-05-01T14:06:21.289Z,27.49
2019-05-01T14:08:55.645Z,28.84
2019-05-01T14:11:29.976Z,28.84
2019-05-01T14:14:04.297Z,29.79
2019-05-01T14:16:38.705Z,29.92
2019-05-01T14:19:13.117Z,30.08
2019-05-01T14:22:15.396Z,29.96
2019-05-01T14:24:54.510Z,29.96
2019-05-01T14:27:28.976Z,30.58
2019-05-01T14:30:04.258Z,30.89
2019-05-01T14:32:39.269Z,30.89
2019-05-01T14:35:15.575Z,31.01
2019-05-01T14:37:49.939Z,30.90
2019-05-01T14:40:24.984Z,30.30
2019-05-01T14:42:59.619Z,30.89
2019-05-01T14:45:33.941Z,30.89
2019-05-01T14:48:08.314Z,31.17
2019-05-01T14:50:42.853Z,31.33
2019-05-01T14:53:15.633Z,31.74
2019-05-01T14:55:49.943Z,32.12
2019-05-01T14:58:24.342Z,31.39
2019-05-01T15:00:58.864Z,30.47
2019-05-01T15:03:31.824Z,28.68
2019-05-01T15:06:04.867Z,29.09
2019-05-01T15:08:39.271Z,29.08
2019-05-01T15:11:13.794Z,29.33
2019-05-01T15:14:11.546Z,29.22
2019-05-01T15:16:53.283Z,29.37
2019-05-01T15:19:30.072Z,28.92
2019-05-01T15:22:04.648Z,28.42
2019-05-01T15:24:39.066Z,28.42
2019-05-01T15:27:13.723Z,27.66
2019-05-01T15:29:46.854Z,27.66
2019-05-01T15:32:20.631Z,27.34
2019-05-01T15:34:55.272Z,26.70
2019-05-01T15:37:30.778Z,26.27
2019-05-01T15:40:13.647Z,25.83
2019-05-01T15:43:01.471Z,25.01
2019-05-01T15:45:36.061Z,24.16
2019-05-01T15:48:10.331Z,23.77
2019-05-01T15:50:44.986Z,23.32
2019-05-01T15:53:19.352Z,22.70
2019-05-01T15:55:53.946Z,22.70
2019-05-01T15:58:29.287Z,22.56
2019-05-01T16:01:04.715Z,22.19
2019-05-01T16:03:39.106Z,21.85
2019-05-01T16:06:13.671Z,21.47
2019-05-01T16:08:48.075Z,21.37
2019-05-01T16:11:47.608Z,21.08
2019-05-01T16:14:22.247Z,21.08
2019-05-01T16:16:57.791Z,21.00
2019-05-01T16:19:33.912Z,20.88
2019-05-01T16:22:07.333Z,20.66
2019-05-01T16:24:43.123Z,20.48
2019-05-01T16:27:17.652Z,20.46
2019-05-01T16:29:52.248Z,20.46
2019-05-01T16:32:26.948Z,20.52
2019-05-01T16:35:01.275Z,20.22
2019-05-01T16:37:35.887Z,20.37
2019-05-01T16:40:42.586Z,20.15
2019-05-01T16:43:17.269Z,20.01
2019-05-01T16:45:51.909Z,20.06
2019-05-01T16:48:26.280Z,20.01
2019-05-01T16:51:00.789Z,19.89
2019-05-01T16:53:35.074Z,19.87
2019-05-01T16:56:09.689Z,19.90
2019-05-01T16:58:44.348Z,19.94
2019-05-01T17:01:34.939Z,19.79
2019-05-01T17:04:22.606Z,19.74
2019-05-01T17:07:12.273Z,19.76
2019-05-01T17:10:04.479Z,19.61
2019-05-01T17:12:45.128Z,19.61
2019-05-01T17:15:26.472Z,19.65
2019-05-01T17:18:00.943Z,19.65
2019-05-01T17:20:35.276Z,19.58
2019-05-01T17:23:10.815Z,19.61
2019-05-01T17:25:45.410Z,19.57
2019-05-01T17:28:19.971Z,19.52
2019-05-01T17:30:58.545Z,19.43
2019-05-01T17:33:33.298Z,19.42
2019-05-01T17:36:07.948Z,19.33
2019-05-01T17:38:49.412Z,19.29
2019-05-01T17:41:22.727Z,19.32
2019-05-01T17:43:56.913Z,19.29
2019-05-01T17:46:31.150Z,19.22
2019-05-01T17:49:09.440Z,19.28
2019-05-01T17:51:46.298Z,19.31
2019-05-01T17:54:18.955Z,19.19
2019-05-01T17:56:54.234Z,19.10
2019-05-01T17:59:28.895Z,18.99
2019-05-01T18:02:11.678Z,18.96
2019-05-01T18:04:54.278Z,18.87
2019-05-01T18:07:33.173Z,18.73
2019-05-01T18:10:06.732Z,18.68
2019-05-01T18:12:39.715Z,18.61
2019-05-01T18:15:14.295Z,18.54
2019-05-01T18:17:48.880Z,18.41
2019-05-01T18:20:23.081Z,18.33
2019-05-01T18:23:12.262Z,18.16
2019-05-01T18:25:57.281Z,18.16
2019-05-01T18:28:52.954Z,18.12
2019-05-01T18:31:31.846Z,18.14
2019-05-01T18:34:05.724Z,18.14
2019-05-01T18:36:43.454Z,18.11
2019-05-01T18:39:30.601Z,18.09
2019-05-01T18:42:07.130Z,18.04
2019-05-01T18:44:42.505Z,17.92
2019-05-01T18:47:17.949Z,17.92
2019-05-01T18:49:52.286Z,17.88
2019-05-01T18:52:26.885Z,17.85
2019-05-01T18:54:59.804Z,17.81
2019-05-01T18:57:34.257Z,17.72
2019-05-01T19:00:08.784Z,17.63
2019-05-01T19:02:43.278Z,17.56
2019-05-01T19:05:17.795Z,17.56
2019-05-01T19:07:50.799Z,17.51
2019-05-01T19:10:25.138Z,17.52
2019-05-01T19:12:59.956Z,17.42
2019-05-01T19:15:34.682Z,17.32
2019-05-01T19:18:08.955Z,17.15
2019-05-01T19:20:43.724Z,17.15
2019-05-01T19:23:22.124Z,17.15
2019-05-01T19:25:56.446Z,17.15
2019-05-01T19:28:31.088Z,17.05
2019-05-01T19:31:05.705Z,16.79
2019-05-01T19:33:41.781Z,16.79
2019-05-01T19:36:16.667Z,16.60
2019-05-01T19:38:50.054Z,16.60
2019-05-01T19:41:25.712Z,16.53
2019-05-01T19:44:00.294Z,16.53
2019-05-01T19:46:34.897Z,16.46
2019-05-01T19:49:07.874Z,16.42
2019-05-01T19:51:40.899Z,16.35
2019-05-01T19:54:13.755Z,16.30
2019-05-01T19:56:48.118Z,16.23
2019-05-01T19:59:22.689Z,16.11
2019-05-01T20:01:57.120Z,16.11
2019-05-01T20:04:31.795Z,16.07
2019-05-01T20:07:04.687Z,15.99
2019-05-01T20:09:38.956Z,15.89
2019-05-01T20:12:13.328Z,15.89
2019-05-01T20:14:47.787Z,15.73
2019-05-01T20:17:20.814Z,15.73
2019-05-01T20:19:54.986Z,15.69
2019-05-01T20:22:29.319Z,15.63
2019-05-01T20:25:03.802Z,15.58
2019-05-01T20:27:39.152Z,15.54
2019-05-01T20:30:12.955Z,15.48
2019-05-01T20:32:45.858Z,15.44
2019-05-01T20:35:23.886Z,15.23
2019-05-01T20:37:57.057Z,15.23
2019-05-01T20:40:38.306Z,15.20
2019-05-01T20:43:12.957Z,15.11
2019-05-01T20:47:34.929Z,15.03
2019-05-01T20:50:00.974Z,15.03
2019-05-01T20:52:35.310Z,15.02
2019-05-01T20:55:10.281Z,15.01
2019-05-01T20:57:46.946Z,14.96
2019-05-01T21:00:24.354Z,14.84
2019-05-01T21:02:58.949Z,14.68
2019-05-01T21:05:39.570Z,14.68
2019-05-01T21:08:17.393Z,14.60
2019-05-01T21:10:57.128Z,14.65
2019-05-01T21:13:31.654Z,14.62
2019-05-01T21:16:06.286Z,14.62
2019-05-01T21:18:40.879Z,14.65
2019-05-01T21:21:14.284Z,14.65
2019-05-01T21:23:55.325Z,14.65
2019-05-01T21:26:23.462Z,14.65
2019-05-01T21:28:58.310Z,14.71
2019-05-01T21:31:34.156Z,14.71
2019-05-01T21:34:08.900Z,14.71
2019-05-01T21:36:42.293Z,14.71
2019-05-01T21:39:17.978Z,14.70
2019-05-01T21:41:53.288Z,14.68
2019-05-01T21:44:27.757Z,14.63
2019-05-01T21:47:03.999Z,14.58
2019-05-01T21:49:38.912Z,14.59
2019-05-01T21:52:13.615Z,14.55
2019-05-01T21:54:50.163Z,14.54
2019-05-01T21:57:24.506Z,14.55
2019-05-01T21:59:59.303Z,14.55
2019-05-01T22:02:33.922Z,14.53
2019-05-01T22:05:09.312Z,14.53
2019-05-01T22:09:10.546Z,14.56
2019-05-01T22:11:46.114Z,14.56
2019-05-01T22:14:36.073Z,14.55
2019-05-01T22:17:19.489Z,14.58
2019-05-01T22:19:54.131Z,14.58
2019-05-01T22:22:38.736Z,14.57
2019-05-01T22:25:25.313Z,14.53
2019-05-01T22:28:13.901Z,14.53
2019-05-01T22:30:54.165Z,14.53
2019-05-01T22:33:28.889Z,14.52
2019-05-01T22:36:01.690Z,14.52
2019-05-01T22:38:35.995Z,14.47
2019-05-01T22:41:13.650Z,14.42
2019-05-01T22:43:48.103Z,14.39
2019-05-01T22:46:27.890Z,14.33
2019-05-01T22:49:00.872Z,14.33
2019-05-01T22:51:33.870Z,14.29
2019-05-01T22:54:08.284Z,14.26
2019-05-01T22:56:42.773Z,14.24
2019-05-01T22:59:15.784Z,14.22
2019-05-01T23:01:53.005Z,14.11
2019-05-01T23:04:28.723Z,14.11
2019-05-01T23:07:02.954Z,14.06
2019-05-01T23:09:35.871Z,14.07
2019-05-01T23:12:10.116Z,14.05
2019-05-01T23:14:45.275Z,13.96
2019-05-01T23:17:28.392Z,13.96
2019-05-01T23:20:03.988Z,13.92
2019-05-01T23:22:38.956Z,13.90
2019-05-01T23:25:11.991Z,13.89
2019-05-01T23:27:44.653Z,13.91
2019-05-01T23:30:20.798Z,13.86
2019-05-01T23:32:55.275Z,13.80
2019-05-01T23:35:29.656Z,13.79
2019-05-01T23:38:04.128Z,13.78
2019-05-01T23:40:39.711Z,13.81
2019-05-01T23:43:12.713Z,13.80
2019-05-01T23:45:46.958Z,13.85
2019-05-01T23:48:21.286Z,13.91
2019-05-01T23:50:55.689Z,13.94
2019-05-01T23:53:30.117Z,14.01
2019-05-01T23:56:04.766Z,14.05
2019-05-01T23:58:38.952Z,14.03
